createdAt,value
2023-05-11T00:02:26.502Z,5.43
2023-05-11T00:04:55.975Z,4.77
2023-05-11T00:07:24.530Z,4.73
2023-05-11T00:09:52.953Z,9.30
2023-05-11T00:12:21.606Z,8.37
2023-05-11T00:14:51.556Z,5.67
2023-05-11T00:17:20.830Z,7.40
2023-05-11T00:19:49.529Z,7.20
2023-05-11T00:22:18.015Z,8.27
2023-05-11T00:24:46.622Z,5.17
2023-05-11T00:27:15.599Z,5.30
2023-05-11T00:29:44.100Z,9.27
2023-05-11T00:32:14.005Z,5.23
2023-05-11T00:34:42.588Z,6.43
2023-05-11T00:37:11.073Z,5.53
2023-05-11T00:39:40.824Z,6.27
2023-05-11T00:42:09.394Z,4.80
2023-05-11T00:44:37.828Z,5.03
2023-05-11T00:47:06.600Z,5.83
2023-05-11T00:49:36.780Z,6.90
2023-05-11T00:52:05.776Z,5.80
2023-05-11T00:54:34.729Z,7.40
2023-05-11T00:57:03.391Z,5.90
2023-05-11T00:59:31.906Z,7.33
2023-05-11T01:02:00.805Z,5.03
2023-05-11T01:04:29.356Z,12.97
2023-05-11T01:07:06.234Z,11.80
2023-05-11T01:09:48.323Z,8.70
2023-05-11T01:12:27.755Z,8.90
2023-05-11T01:15:03.907Z,9.17
2023-05-11T01:17:45.410Z,5.57
2023-05-11T01:20:19.190Z,8.07
2023-05-11T01:23:35.275Z,6.50
2023-05-11T01:26:18.659Z,6.53
2023-05-11T01:29:03.836Z,6.53
2023-05-11T01:31:35.873Z,8.73
2023-05-11T01:34:07.752Z,8.70
2023-05-11T01:36:40.542Z,5.50
2023-05-11T01:39:12.158Z,7.70
2023-05-11T01:41:43.550Z,6.87
2023-05-11T01:44:13.491Z,5.47
2023-05-11T01:46:43.428Z,6.93
2023-05-11T01:49:14.220Z,6.00
2023-05-11T01:51:45.573Z,7.87
2023-05-11T01:54:15.185Z,5.83
2023-05-11T01:56:45.919Z,6.00
2023-05-11T01:59:15.795Z,6.10
2023-05-11T02:01:46.169Z,8.00
2023-05-11T02:04:16.054Z,9.60
2023-05-11T02:06:46.683Z,5.30
2023-05-11T02:09:17.895Z,4.93
2023-05-11T02:11:48.345Z,6.57
2023-05-11T02:14:19.153Z,5.30
2023-05-11T02:16:50.759Z,7.70
2023-05-11T02:19:20.171Z,5.50
2023-05-11T02:21:49.788Z,8.10
2023-05-11T02:24:20.815Z,8.60
2023-05-11T02:26:49.427Z,9.73
2023-05-11T02:29:18.112Z,9.47
2023-05-11T02:31:51.227Z,13.33
2023-05-11T02:34:25.153Z,8.07
2023-05-11T02:36:57.494Z,8.60
2023-05-11T02:39:33.758Z,6.80
2023-05-11T02:42:11.123Z,6.47
2023-05-11T02:44:41.977Z,8.57
2023-05-11T02:47:16.097Z,5.27
2023-05-11T02:49:46.211Z,5.60
2023-05-11T02:52:17.023Z,6.43
2023-05-11T02:54:46.312Z,7.20
2023-05-11T02:57:14.878Z,6.23
2023-05-11T02:59:43.907Z,4.57
2023-05-11T03:02:14.049Z,6.57
2023-05-11T03:04:42.616Z,5.70
2023-05-11T03:07:11.625Z,8.17
2023-05-11T03:09:40.104Z,7.17
2023-05-11T03:12:09.702Z,7.73
2023-05-11T03:14:40.027Z,5.40
2023-05-11T03:17:09.563Z,8.83
2023-05-11T03:19:42.184Z,9.63
2023-05-11T03:22:12.253Z,7.97
2023-05-11T03:24:41.656Z,9.10
2023-05-11T03:27:11.640Z,6.47
2023-05-11T03:29:43.935Z,4.83
2023-05-11T03:32:12.704Z,5.90
2023-05-11T03:34:42.732Z,7.63
2023-05-11T03:37:13.974Z,7.37
2023-05-11T03:39:45.418Z,7.03
2023-05-11T03:42:16.000Z,5.43
2023-05-11T03:44:47.748Z,11.00
2023-05-11T03:47:19.027Z,6.37
2023-05-11T03:49:50.171Z,6.40
2023-05-11T03:52:19.962Z,8.93
2023-05-11T03:54:48.833Z,8.17
2023-05-11T03:57:17.470Z,5.70
2023-05-11T03:59:46.074Z,6.53
2023-05-11T04:02:14.803Z,7.60
2023-05-11T04:04:43.353Z,7.87
2023-05-11T04:07:13.418Z,7.30
2023-05-11T04:09:41.895Z,6.37
2023-05-11T04:12:10.507Z,7.50
2023-05-11T04:14:39.106Z,5.90
2023-05-11T04:17:07.992Z,8.03
2023-05-11T04:19:36.483Z,7.43
2023-05-11T04:22:04.978Z,5.27
2023-05-11T04:24:34.843Z,9.33
2023-05-11T04:27:04.292Z,9.40
2023-05-11T04:29:32.824Z,7.30
2023-05-11T04:32:01.505Z,8.20
2023-05-11T04:34:30.194Z,8.57
2023-05-11T04:36:58.756Z,8.40
2023-05-11T04:39:27.195Z,8.50
2023-05-11T04:41:57.146Z,8.60
2023-05-11T04:44:25.631Z,8.57
2023-05-11T04:46:55.825Z,13.13
2023-05-11T04:49:24.456Z,8.83
2023-05-11T04:51:53.204Z,6.27
2023-05-11T04:54:21.833Z,8.03
2023-05-11T04:56:50.282Z,9.23
2023-05-11T04:59:20.339Z,10.97
2023-05-11T05:01:48.795Z,8.13
2023-05-11T05:04:17.347Z,10.40
2023-05-11T05:06:46.028Z,10.43
2023-05-11T05:09:14.540Z,10.27
2023-05-11T05:11:42.974Z,10.23
2023-05-11T05:14:11.560Z,7.87
2023-05-11T05:16:41.539Z,13.63
2023-05-11T05:19:13.028Z,13.17
2023-05-11T05:21:41.949Z,9.63
2023-05-11T05:24:12.468Z,7.87
2023-05-11T05:26:40.869Z,8.10
2023-05-11T05:29:09.383Z,9.33
2023-05-11T05:31:37.995Z,12.37
2023-05-11T05:34:08.038Z,15.33
2023-05-11T05:36:36.661Z,12.13
2023-05-11T05:39:09.137Z,7.63
2023-05-11T05:41:39.354Z,13.10
2023-05-11T05:44:07.995Z,5.87
2023-05-11T05:46:36.762Z,11.00
2023-05-11T05:49:05.418Z,10.03
2023-05-11T05:51:35.550Z,7.27
2023-05-11T05:54:04.040Z,5.83
2023-05-11T05:56:35.278Z,12.13
2023-05-11T05:59:03.795Z,8.17
2023-05-11T06:01:32.292Z,8.50
2023-05-11T06:04:01.292Z,7.40
2023-05-11T06:06:29.866Z,8.17
2023-05-11T06:08:59.870Z,12.33
2023-05-11T06:11:28.365Z,6.97
2023-05-11T06:13:56.909Z,10.70
2023-05-11T06:16:25.572Z,8.53
2023-05-11T06:18:54.235Z,11.30
2023-05-11T06:21:22.801Z,7.20
2023-05-11T06:23:51.428Z,9.17
2023-05-11T06:26:21.592Z,8.17
2023-05-11T06:28:49.969Z,10.30
2023-05-11T06:31:18.851Z,10.70
2023-05-11T06:33:47.390Z,7.73
2023-05-11T06:36:15.855Z,7.57
2023-05-11T06:38:44.333Z,7.47
2023-05-11T06:41:13.434Z,10.97
2023-05-11T06:43:43.701Z,12.07
2023-05-11T06:46:16.444Z,10.27
2023-05-11T06:48:45.037Z,7.87
2023-05-11T06:51:13.786Z,9.00
2023-05-11T06:53:42.399Z,8.00
2023-05-11T06:56:11.284Z,6.00
2023-05-11T06:58:39.827Z,7.20
2023-05-11T07:01:09.834Z,4.23
2023-05-11T07:03:38.709Z,6.90
2023-05-11T07:06:07.347Z,5.73
2023-05-11T07:08:36.086Z,7.07
2023-05-11T07:11:04.836Z,4.50
2023-05-11T07:13:33.420Z,6.80
2023-05-11T07:16:02.066Z,7.80
2023-05-11T07:18:32.028Z,5.63
2023-05-11T07:21:00.476Z,5.80
2023-05-11T07:23:29.222Z,5.77
2023-05-11T07:25:58.401Z,6.53
2023-05-11T07:28:26.916Z,7.33
2023-05-11T07:30:55.652Z,5.43
2023-05-11T07:33:24.166Z,5.93
2023-05-11T07:35:54.502Z,6.40
2023-05-11T07:38:23.008Z,3.90
2023-05-11T07:40:51.624Z,7.40
2023-05-11T07:43:20.089Z,6.03
2023-05-11T07:45:48.546Z,6.07
2023-05-11T07:48:18.338Z,4.67
2023-05-11T07:50:46.814Z,12.77
2023-05-11T07:53:18.269Z,8.67
2023-05-11T07:55:47.067Z,6.10
2023-05-11T07:58:15.707Z,9.10
2023-05-11T08:00:44.443Z,8.80
2023-05-11T08:03:13.385Z,10.10
2023-05-11T08:05:42.062Z,6.50
2023-05-11T08:08:10.646Z,6.10
2023-05-11T08:10:40.677Z,7.53
2023-05-11T08:13:09.268Z,7.10
2023-05-11T08:15:37.715Z,6.27
2023-05-11T08:18:07.008Z,7.73
2023-05-11T08:20:35.600Z,5.40
2023-05-11T08:23:04.107Z,8.47
2023-05-11T08:25:32.797Z,5.43
2023-05-11T08:28:02.704Z,8.03
2023-05-11T08:30:31.687Z,5.60
2023-05-11T08:33:00.470Z,4.23
2023-05-11T08:35:29.074Z,5.13
2023-05-11T08:37:57.575Z,6.07
2023-05-11T08:40:29.347Z,4.40
2023-05-11T08:42:58.291Z,5.60
2023-05-11T08:45:28.902Z,4.40
2023-05-11T08:47:57.720Z,4.97
2023-05-11T08:50:26.258Z,5.77
2023-05-11T08:52:54.780Z,4.47
2023-05-11T08:55:26.536Z,8.63
2023-05-11T08:58:02.192Z,5.87
2023-05-11T09:00:32.782Z,7.50
2023-05-11T09:03:02.760Z,7.57
2023-05-11T09:05:32.881Z,4.40
2023-05-11T09:08:04.291Z,3.10
2023-05-11T09:10:32.943Z,6.83
2023-05-11T09:13:01.430Z,3.60
2023-05-11T09:15:37.294Z,4.90
2023-05-11T09:18:06.555Z,3.60
2023-05-11T09:20:35.818Z,4.30
2023-05-11T09:23:04.384Z,8.60
2023-05-11T09:25:35.328Z,4.73
2023-05-11T09:28:04.129Z,11.67
2023-05-11T09:30:36.090Z,5.27
2023-05-11T09:33:04.760Z,7.90
2023-05-11T09:35:35.129Z,8.63
2023-05-11T09:38:06.386Z,6.17
2023-05-11T09:40:37.667Z,3.40
2023-05-11T09:43:18.209Z,5.50
2023-05-11T09:45:50.186Z,4.07
2023-05-11T09:48:29.963Z,2.60
2023-05-11T09:51:04.234Z,3.80
2023-05-11T09:53:41.301Z,2.97
2023-05-11T09:56:10.130Z,6.43
2023-05-11T09:58:49.462Z,3.97
2023-05-11T10:01:21.522Z,6.97
2023-05-11T10:04:02.740Z,4.47
2023-05-11T10:06:49.461Z,3.07
2023-05-11T10:09:20.550Z,3.57
2023-05-11T10:11:49.394Z,2.20
2023-05-11T10:14:20.340Z,2.77
2023-05-11T10:16:50.620Z,2.27
2023-05-11T10:19:20.189Z,1.90
2023-05-11T10:21:49.332Z,3.07
2023-05-11T10:24:20.241Z,2.03
2023-05-11T10:26:49.520Z,4.80
2023-05-11T10:29:21.645Z,5.33
2023-05-11T10:31:57.377Z,3.90
2023-05-11T10:34:26.980Z,2.53
2023-05-11T10:36:57.723Z,3.47
2023-05-11T10:39:26.697Z,3.70
2023-05-11T10:42:07.060Z,3.27
2023-05-11T10:45:08.082Z,2.30
2023-05-11T10:48:03.171Z,1.60
2023-05-11T10:50:53.759Z,2.27
2023-05-11T10:53:39.347Z,2.83
2023-05-11T10:56:28.496Z,3.13
2023-05-11T10:59:14.904Z,3.13
2023-05-11T11:01:45.512Z,2.50
2023-05-11T11:04:15.988Z,2.57
2023-05-11T11:06:45.298Z,5.50
2023-05-11T11:09:16.229Z,3.77
2023-05-11T11:11:47.076Z,6.93
2023-05-11T11:14:17.058Z,5.00
2023-05-11T11:17:27.978Z,5.20
2023-05-11T11:19:58.138Z,5.30
2023-05-11T11:22:47.598Z,4.20
2023-05-11T11:25:18.070Z,5.33
2023-05-11T11:28:00.349Z,4.07
2023-05-11T11:30:31.030Z,2.63
2023-05-11T11:33:33.805Z,2.57
2023-05-11T11:36:03.998Z,7.47
2023-05-11T11:38:34.215Z,5.50
2023-05-11T11:41:03.710Z,5.00
2023-05-11T11:43:46.929Z,7.00
2023-05-11T11:46:29.149Z,8.27
2023-05-11T11:49:10.919Z,4.90
2023-05-11T11:51:42.018Z,4.67
2023-05-11T11:54:10.966Z,3.20
2023-05-11T11:56:47.450Z,2.40
2023-05-11T11:59:16.631Z,4.13
2023-05-11T12:01:46.907Z,5.50
2023-05-11T12:04:42.648Z,2.53
2023-05-11T12:07:14.093Z,3.87
2023-05-11T12:09:42.753Z,2.07
2023-05-11T12:12:12.574Z,3.03
2023-05-11T12:14:49.232Z,2.43
2023-05-11T12:17:26.254Z,4.77
2023-05-11T12:19:54.783Z,4.67
2023-05-11T12:22:27.981Z,2.63
2023-05-11T12:25:00.524Z,3.10
2023-05-11T12:27:29.195Z,4.53
2023-05-11T12:29:58.863Z,2.47
2023-05-11T12:32:29.465Z,2.37
2023-05-11T12:35:02.787Z,10.03
2023-05-11T12:37:33.946Z,3.63
2023-05-11T12:40:02.368Z,5.27
2023-05-11T12:42:35.126Z,3.93
2023-05-11T12:45:04.377Z,2.43
2023-05-11T12:47:33.391Z,2.40
2023-05-11T12:50:01.965Z,2.47
2023-05-11T12:52:30.484Z,4.57
2023-05-11T12:55:01.339Z,4.97
2023-05-11T12:57:33.770Z,6.13
2023-05-11T13:00:12.014Z,3.33
2023-05-11T13:02:50.325Z,3.43
2023-05-11T13:05:20.820Z,2.80
2023-05-11T13:07:50.052Z,2.27
2023-05-11T13:10:25.910Z,4.57
2023-05-11T13:12:54.851Z,3.33
2023-05-11T13:15:25.127Z,3.10
2023-05-11T13:17:59.331Z,2.40
2023-05-11T13:20:30.074Z,3.30
2023-05-11T13:23:06.054Z,2.97
2023-05-11T13:25:37.305Z,3.23
2023-05-11T13:28:06.236Z,3.53
2023-05-11T13:30:35.408Z,2.20
2023-05-11T13:33:04.637Z,2.63
2023-05-11T13:35:33.123Z,3.87
2023-05-11T13:38:02.345Z,3.17
2023-05-11T13:40:30.987Z,2.73
2023-05-11T13:43:01.576Z,2.03
2023-05-11T13:45:30.344Z,3.33
2023-05-11T13:47:58.923Z,2.50
2023-05-11T13:50:28.202Z,5.97
2023-05-11T13:52:56.740Z,2.27
2023-05-11T13:55:25.393Z,3.10
2023-05-11T13:57:53.897Z,2.90
2023-05-11T14:00:24.215Z,2.43
2023-05-11T14:02:53.709Z,2.87
2023-05-11T14:05:22.660Z,2.67
2023-05-11T14:07:51.191Z,6.57
2023-05-11T14:10:20.201Z,1.70
2023-05-11T14:12:48.806Z,4.60
2023-05-11T14:15:17.656Z,4.17
2023-05-11T14:17:47.980Z,2.13
2023-05-11T14:20:16.918Z,3.67
2023-05-11T14:22:45.635Z,5.07
2023-05-11T14:25:14.061Z,2.77
2023-05-11T14:27:42.496Z,6.57
2023-05-11T14:30:11.929Z,2.70
2023-05-11T14:32:40.433Z,6.07
2023-05-11T14:35:11.015Z,3.67
2023-05-11T14:37:39.757Z,3.60
2023-05-11T14:40:09.322Z,3.63
2023-05-11T14:42:38.094Z,3.90
2023-05-11T14:45:08.283Z,2.90
2023-05-11T14:47:37.297Z,2.87
2023-05-11T14:50:06.613Z,2.33
2023-05-11T14:52:36.948Z,3.10
2023-05-11T14:55:06.014Z,4.93
2023-05-11T14:57:34.653Z,4.77
2023-05-11T15:00:03.582Z,2.47
2023-05-11T15:02:32.180Z,3.20
2023-05-11T15:05:00.826Z,3.50
2023-05-11T15:07:32.610Z,2.17
2023-05-11T15:10:02.723Z,2.87
2023-05-11T15:12:32.962Z,3.13
2023-05-11T15:15:01.637Z,2.77
2023-05-11T15:17:30.811Z,4.90
2023-05-11T15:19:59.355Z,5.00
2023-05-11T15:22:28.020Z,3.30
2023-05-11T15:24:56.876Z,3.63
2023-05-11T15:27:26.874Z,1.87
2023-05-11T15:29:56.221Z,3.97
2023-05-11T15:32:24.845Z,6.07
2023-05-11T15:34:59.844Z,4.03
2023-05-11T15:37:29.320Z,2.27
2023-05-11T15:39:57.735Z,5.63
2023-05-11T15:42:27.577Z,4.30
2023-05-11T15:44:56.083Z,7.37
2023-05-11T15:47:24.584Z,3.43
2023-05-11T15:49:53.222Z,4.83
2023-05-11T15:52:22.452Z,4.43
2023-05-11T15:54:50.975Z,5.07
2023-05-11T15:57:19.805Z,4.57
2023-05-11T15:59:49.720Z,3.00
2023-05-11T16:02:18.453Z,4.47
2023-05-11T16:04:47.484Z,3.33
2023-05-11T16:07:15.972Z,4.63
2023-05-11T16:09:45.041Z,3.83
2023-05-11T16:12:13.639Z,7.40
2023-05-11T16:14:42.091Z,11.30
2023-05-11T16:17:12.083Z,6.93
2023-05-11T16:19:40.760Z,7.07
2023-05-11T16:22:09.475Z,4.70
2023-05-11T16:24:38.084Z,5.83
2023-05-11T16:27:07.226Z,5.13
2023-05-11T16:29:35.922Z,3.30
2023-05-11T16:32:05.060Z,9.23
2023-05-11T16:34:36.621Z,16.83
2023-05-11T16:37:05.480Z,18.80
2023-05-11T16:39:34.285Z,10.83
2023-05-11T16:42:03.453Z,5.00
2023-05-11T16:44:32.125Z,3.27
2023-05-11T16:47:02.604Z,4.67
2023-05-11T16:49:31.445Z,4.97
2023-05-11T16:52:02.471Z,6.00
2023-05-11T16:54:31.230Z,7.73
2023-05-11T16:57:01.352Z,5.10
2023-05-11T16:59:29.934Z,7.07
2023-05-11T17:01:58.536Z,4.07
2023-05-11T17:04:27.316Z,7.33
2023-05-11T17:06:55.914Z,5.50
2023-05-11T17:09:26.268Z,4.37
2023-05-11T17:11:55.756Z,3.43
2023-05-11T17:14:25.866Z,8.50
2023-05-11T17:16:54.377Z,11.67
2023-05-11T17:19:22.919Z,8.17
2023-05-11T17:21:51.609Z,4.00
2023-05-11T17:24:20.142Z,3.07
2023-05-11T17:26:50.580Z,7.50
2023-05-11T17:29:19.046Z,3.10
2023-05-11T17:31:49.297Z,6.83
2023-05-11T17:34:18.495Z,7.20
2023-05-11T17:36:47.084Z,5.13
2023-05-11T17:39:16.580Z,4.37
2023-05-11T17:41:45.383Z,6.37
2023-05-11T17:44:15.502Z,5.20
2023-05-11T17:46:44.047Z,4.10
2023-05-11T17:49:12.595Z,7.60
2023-05-11T17:51:41.114Z,4.37
2023-05-11T17:54:09.702Z,4.50
2023-05-11T17:56:38.318Z,3.27
2023-05-11T17:59:06.819Z,6.27
2023-05-11T18:01:36.848Z,4.70
2023-05-11T18:04:06.391Z,5.40
2023-05-11T18:06:34.955Z,10.10
2023-05-11T18:09:05.361Z,4.00
2023-05-11T18:11:34.187Z,6.23
2023-05-11T18:14:02.577Z,2.10
2023-05-11T18:16:31.160Z,6.37
2023-05-11T18:19:01.534Z,5.83
2023-05-11T18:21:30.114Z,4.20
2023-05-11T18:23:58.797Z,4.73
2023-05-11T18:26:27.755Z,4.67
2023-05-11T18:28:56.387Z,4.90
2023-05-11T18:31:24.959Z,2.37
2023-05-11T18:33:55.976Z,3.93
2023-05-11T18:36:26.457Z,3.43
2023-05-11T18:38:55.319Z,6.53
2023-05-11T18:41:24.093Z,9.23
2023-05-11T18:43:53.188Z,6.90
2023-05-11T18:46:21.833Z,5.37
2023-05-11T18:48:53.029Z,4.93
2023-05-11T18:51:23.058Z,5.70
2023-05-11T18:53:53.301Z,4.23
2023-05-11T18:56:22.541Z,4.60
2023-05-11T18:58:51.024Z,2.53
2023-05-11T19:01:24.177Z,6.73
2023-05-11T19:03:57.344Z,4.23
2023-05-11T19:06:25.909Z,4.17
2023-05-11T19:08:55.910Z,7.50
2023-05-11T19:11:25.898Z,10.30
2023-05-11T19:13:54.477Z,15.50
2023-05-11T19:16:23.093Z,9.53
2023-05-11T19:18:51.584Z,4.20
2023-05-11T19:21:20.185Z,2.67
2023-05-11T19:23:48.608Z,4.73
2023-05-11T19:26:18.494Z,6.50
2023-05-11T19:28:47.393Z,19.03
2023-05-11T19:31:16.228Z,20.47
2023-05-11T19:33:45.033Z,18.37
2023-05-11T19:36:13.922Z,7.20
2023-05-11T19:38:42.510Z,8.77
2023-05-11T19:41:11.207Z,5.13
2023-05-11T19:43:41.628Z,6.47
2023-05-11T19:46:10.426Z,6.13
2023-05-11T19:48:38.907Z,5.53
2023-05-11T19:51:07.863Z,6.10
2023-05-11T19:53:37.139Z,5.37
2023-05-11T19:56:06.193Z,6.90
2023-05-11T19:58:34.697Z,8.87
2023-05-11T20:01:05.155Z,8.90
2023-05-11T20:03:34.767Z,6.80
2023-05-11T20:06:03.646Z,5.87
2023-05-11T20:08:32.130Z,6.80
2023-05-11T20:11:00.706Z,7.50
2023-05-11T20:13:29.133Z,9.77
2023-05-11T20:15:57.843Z,8.67
2023-05-11T20:18:28.486Z,9.60
2023-05-11T20:20:58.346Z,10.87
2023-05-11T20:23:28.210Z,11.37
2023-05-11T20:25:56.712Z,12.33
2023-05-11T20:28:27.458Z,10.63
2023-05-11T20:30:57.177Z,9.77
2023-05-11T20:35:59.204Z,8.30
2023-05-11T20:38:27.698Z,10.57
2023-05-11T20:40:58.184Z,7.30
2023-05-11T20:43:27.412Z,7.43
2023-05-11T20:45:56.096Z,8.40
2023-05-11T20:48:38.546Z,7.50
2023-05-11T20:51:10.272Z,5.23
2023-05-11T20:53:38.747Z,6.53
2023-05-11T20:56:08.614Z,6.80
2023-05-11T20:58:37.735Z,8.87
2023-05-11T21:01:07.094Z,10.83
2023-05-11T21:03:35.677Z,12.07
2023-05-11T21:06:04.309Z,7.30
2023-05-11T21:08:34.238Z,13.70
2023-05-11T21:11:02.768Z,7.97
2023-05-11T21:13:31.827Z,5.57
2023-05-11T21:16:00.338Z,9.47
2023-05-11T21:18:32.268Z,12.33
2023-05-11T21:21:00.841Z,11.53
2023-05-11T21:23:31.116Z,17.87
2023-05-11T21:26:01.136Z,9.97
2023-05-11T21:28:29.823Z,7.10
2023-05-11T21:30:58.774Z,9.73
2023-05-11T21:33:27.395Z,6.37
2023-05-11T21:35:56.657Z,6.80
2023-05-11T21:38:25.300Z,7.80
2023-05-11T21:40:54.201Z,6.13
2023-05-11T21:43:24.731Z,6.23
2023-05-11T21:45:53.294Z,4.13
2023-05-11T21:48:22.523Z,4.93
2023-05-11T21:50:54.058Z,4.23
2023-05-11T21:53:23.482Z,4.73
2023-05-11T21:55:52.061Z,5.13
2023-05-11T21:58:20.826Z,5.83
2023-05-11T22:00:51.202Z,5.40
2023-05-11T22:03:19.741Z,7.90
2023-05-11T22:05:49.099Z,9.17
2023-05-11T22:08:17.521Z,8.80
2023-05-11T22:10:47.078Z,7.70
2023-05-11T22:13:15.999Z,7.13
2023-05-11T22:15:44.732Z,4.17
2023-05-11T22:18:14.895Z,3.83
2023-05-11T22:20:43.399Z,5.40
2023-05-11T22:23:13.540Z,4.23
2023-05-11T22:25:43.642Z,5.77
2023-05-11T22:28:12.060Z,4.53
2023-05-11T22:30:40.588Z,5.23
2023-05-11T22:33:09.071Z,4.00
2023-05-11T22:35:40.078Z,5.67
2023-05-11T22:38:08.881Z,4.20
2023-05-11T22:40:37.615Z,4.47
2023-05-11T22:43:06.023Z,4.47
2023-05-11T22:45:34.531Z,8.17
2023-05-11T22:48:03.261Z,3.43
2023-05-11T22:50:31.964Z,3.67
2023-05-11T22:53:01.950Z,6.63
2023-05-11T22:55:30.426Z,6.23
2023-05-11T22:57:58.975Z,5.90
2023-05-11T23:00:27.596Z,5.57
2023-05-11T23:02:56.291Z,3.57
2023-05-11T23:05:24.884Z,7.50
2023-05-11T23:07:53.316Z,5.67
2023-05-11T23:10:23.200Z,10.67
2023-05-11T23:12:51.671Z,9.37
2023-05-11T23:15:20.306Z,5.13
2023-05-11T23:17:48.815Z,12.97
2023-05-11T23:20:18.030Z,5.47
2023-05-11T23:22:46.710Z,8.77
2023-05-11T23:25:15.144Z,8.07
2023-05-11T23:27:45.326Z,8.00
2023-05-11T23:30:14.315Z,7.40
2023-05-11T23:32:42.863Z,13.07
2023-05-11T23:35:12.209Z,11.17
2023-05-11T23:37:40.852Z,7.87
2023-05-11T23:40:10.301Z,5.43
2023-05-11T23:42:39.531Z,6.80
2023-05-11T23:45:10.470Z,6.07
2023-05-11T23:47:39.815Z,5.77
2023-05-11T23:50:09.796Z,7.93
2023-05-11T23:52:38.422Z,8.40
2023-05-11T23:55:09.412Z,6.13
2023-05-11T23:57:37.928Z,7.27
